Time;durP1;ratioP1;P1;durP2;ratioP2;P2;SDS_P1;SDS_P2;PMS_P1;PMS_P2;Temp;Humidity;BMP_temperature;BMP_pressure;BME280_temperature;BME280_humidity;BME280_pressure;Samples;Min_cycle;Max_cycle;Signal;HPM_P1;HPM_P2
2021/05/29 00:01:17;;;;;;;2.92;1.83;;;;;17.80;102341.00;;;;5072012;28;20229;-77
2021/05/29 00:03:44;;;;;;;2.15;1.83;;;;;17.70;102343.00;;;;5072799;28;20207;-77
2021/05/29 00:06:11;;;;;;;2.67;1.95;;;;;17.70;102338.00;;;;5090863;28;20225;-77
2021/05/29 00:08:37;;;;;;;2.70;2.00;;;;;17.70;102334.00;;;;5075561;28;20681;-78
2021/05/29 00:11:05;;;;;;;3.50;1.98;;;;;17.70;102340.00;;;;5071672;28;20202;-78
2021/05/29 00:13:32;;;;;;;2.83;1.90;;;;;17.70;102343.00;;;;5072136;28;20199;-78
2021/05/29 00:16:00;;;;;;;2.67;2.03;;;;;17.60;102351.00;;;;5070776;28;20191;-77
2021/05/29 00:18:27;;;;;;;2.28;1.92;;;;;17.60;102340.00;;;;5071849;28;20704;-78
2021/05/29 00:20:54;;;;;;;2.30;2.10;;;;;17.60;102339.00;;;;5071565;28;20261;-77
2021/05/29 00:23:21;;;;;;;4.45;1.80;;;;;17.60;102347.00;;;;5071357;28;20571;-78
2021/05/29 00:25:49;;;;;;;2.60;1.80;;;;;17.50;102356.00;;;;5071606;28;20231;-77
2021/05/29 00:28:16;;;;;;;1.92;1.65;;;;;17.50;102348.00;;;;5070685;28;20205;-78
2021/05/29 00:30:44;;;;;;;2.08;1.88;;;;;17.50;102342.00;;;;5071255;28;20206;-78
2021/05/29 00:33:12;;;;;;;2.88;2.00;;;;;17.50;102346.00;;;;5070281;28;20234;-78
2021/05/29 00:35:40;;;;;;;2.97;2.05;;;;;17.50;102351.00;;;;5072199;28;20207;-78
2021/05/29 00:38:07;;;;;;;4.05;2.08;;;;;17.50;102345.00;;;;5071281;28;20194;-78
2021/05/29 00:40:35;;;;;;;2.80;2.38;;;;;17.40;102349.00;;;;5071039;28;20210;-78
2021/05/29 00:43:02;;;;;;;3.25;1.73;;;;;17.40;102350.00;;;;5078909;28;20710;-78
2021/05/29 00:45:29;;;;;;;2.65;1.73;;;;;17.40;102355.00;;;;5070106;28;20222;-77
2021/05/29 00:47:56;;;;;;;1.92;1.73;;;;;17.40;102351.00;;;;5070490;28;20195;-78
2021/05/29 00:50:23;;;;;;;2.60;2.40;;;;;17.40;102352.00;;;;5070732;28;20676;-77
2021/05/29 00:52:50;;;;;;;2.35;1.83;;;;;17.40;102347.00;;;;5072108;28;20205;-78
2021/05/29 00:55:18;;;;;;;2.15;1.92;;;;;17.40;102353.00;;;;5078729;28;20222;-78
2021/05/29 00:57:47;;;;;;;2.35;1.90;;;;;17.40;102355.00;;;;5071726;28;20726;-78
2021/05/29 01:00:16;;;;;;;2.20;2.00;;;;;17.30;102349.00;;;;5076896;28;20206;-77
2021/05/29 01:02:42;;;;;;;3.28;2.20;;;;;17.40;102355.00;;;;5091470;28;20194;-78
2021/05/29 01:05:11;;;;;;;4.15;2.00;;;;;17.30;102350.00;;;;5080837;28;20597;-77
2021/05/29 01:07:39;;;;;;;2.53;1.95;;;;;17.30;102355.00;;;;5071036;28;20195;-78
2021/05/29 01:10:07;;;;;;;2.60;1.90;;;;;17.30;102355.00;;;;5090524;28;20233;-78
2021/05/29 01:12:35;;;;;;;2.45;2.08;;;;;17.30;102346.00;;;;5078387;28;20210;-78
2021/05/29 01:15:06;;;;;;;2.65;2.08;;;;;17.30;102348.00;;;;5079638;28;20201;-77
2021/05/29 01:17:32;;;;;;;3.05;2.13;;;;;17.20;102345.00;;;;5091057;28;20600;-78
2021/05/29 01:19:59;;;;;;;4.53;2.10;;;;;17.20;102346.00;;;;5091632;28;20213;-78
2021/05/29 01:22:38;;;;;;;3.05;2.22;;;;;17.10;102341.00;;;;5086888;28;20191;-78
2021/05/29 01:25:09;;;;;;;3.10;2.10;;;;;17.10;102343.00;;;;5071009;28;20207;-78
2021/05/29 01:27:36;;;;;;;2.78;2.30;;;;;17.10;102346.00;;;;5078071;28;20199;-78
2021/05/29 01:30:05;;;;;;;2.38;1.88;;;;;17.10;102349.00;;;;5070792;28;20208;-78
2021/05/29 01:32:33;;;;;;;3.00;2.00;;;;;17.10;102356.00;;;;5069544;28;20223;-78
2021/05/29 01:35:02;;;;;;;2.33;1.80;;;;;17.00;102351.00;;;;5077468;28;20202;-78
2021/05/29 01:37:30;;;;;;;3.20;2.20;;;;;17.00;102348.00;;;;5088472;28;20190;-78
2021/05/29 01:39:58;;;;;;;2.67;2.00;;;;;17.00;102351.00;;;;5070377;28;20684;-78
2021/05/29 01:42:26;;;;;;;3.38;2.20;;;;;17.00;102355.00;;;;5078116;28;20202;-78
2021/05/29 01:44:53;;;;;;;2.78;2.10;;;;;16.90;102353.00;;;;5086499;28;20195;-78
2021/05/29 01:47:20;;;;;;;3.80;2.58;;;;;16.90;102365.00;;;;5070346;28;20195;-78
2021/05/29 01:49:47;;;;;;;3.53;2.15;;;;;16.90;102357.00;;;;5070663;28;20195;-78
2021/05/29 01:52:14;;;;;;;3.03;1.90;;;;;16.90;102354.00;;;;5069596;28;20199;-78
2021/05/29 01:54:40;;;;;;;3.35;2.15;;;;;16.80;102355.00;;;;5080281;28;20206;-78
2021/05/29 01:57:08;;;;;;;2.45;2.13;;;;;16.80;102352.00;;;;5079145;28;20669;-78
2021/05/29 01:59:35;;;;;;;2.30;2.08;;;;;16.80;102347.00;;;;5071536;28;20618;-78
2021/05/29 02:02:02;;;;;;;2.67;2.17;;;;;16.70;102353.00;;;;5069670;28;20198;-78
2021/05/29 02:04:29;;;;;;;2.60;2.00;;;;;16.70;102357.00;;;;5084614;28;20214;-78
2021/05/29 02:06:56;;;;;;;2.75;2.22;;;;;16.70;102353.00;;;;5083583;28;20222;-78
2021/05/29 02:09:23;;;;;;;3.70;2.25;;;;;16.60;102360.00;;;;5069149;28;20226;-78
2021/05/29 02:11:50;;;;;;;3.25;2.45;;;;;16.60;102357.00;;;;5069660;28;20195;-78
2021/05/29 02:14:18;;;;;;;2.35;2.13;;;;;16.60;102354.00;;;;5069603;28;20207;-78
2021/05/29 02:16:44;;;;;;;3.97;2.42;;;;;16.60;102360.00;;;;5070355;28;20203;-77
2021/05/29 02:19:11;;;;;;;3.17;2.30;;;;;16.50;102356.00;;;;5069677;28;20668;-78
2021/05/29 02:21:38;;;;;;;2.47;2.05;;;;;16.50;102351.00;;;;5069547;28;20198;-78
2021/05/29 02:24:05;;;;;;;2.97;2.20;;;;;16.50;102354.00;;;;5085436;28;20202;-78
2021/05/29 02:26:32;;;;;;;3.42;2.65;;;;;16.50;102355.00;;;;5069145;28;21133;-77
2021/05/29 02:28:59;;;;;;;4.00;2.38;;;;;16.40;102357.00;;;;5069283;28;20206;-79
2021/05/29 02:31:27;;;;;;;2.83;2.13;;;;;16.40;102352.00;;;;5069113;28;20210;-78
2021/05/29 02:33:54;;;;;;;3.88;2.45;;;;;16.40;102361.00;;;;5083654;28;20217;-78
2021/05/29 02:36:20;;;;;;;3.80;2.80;;;;;16.40;102350.00;;;;5069363;28;20198;-78
2021/05/29 02:38:48;;;;;;;4.60;3.15;;;;;16.30;102355.00;;;;5069314;28;20206;-78
2021/05/29 02:41:15;;;;;;;3.72;2.85;;;;;16.30;102359.00;;;;5076673;28;20267;-78
2021/05/29 02:43:42;;;;;;;4.80;2.90;;;;;16.30;102358.00;;;;5078182;28;20208;-78
2021/05/29 02:46:10;;;;;;;2.60;2.10;;;;;16.30;102353.00;;;;5075557;28;20231;-78
2021/05/29 02:48:37;;;;;;;3.72;2.60;;;;;16.20;102360.00;;;;5069005;28;20293;-78
2021/05/29 02:51:05;;;;;;;5.95;2.80;;;;;16.20;102360.00;;;;5070134;28;20199;-78
2021/05/29 02:53:32;;;;;;;6.72;2.58;;;;;16.20;102357.00;;;;5083758;28;20199;-78
2021/05/29 02:55:58;;;;;;;3.97;2.88;;;;;16.20;102356.00;;;;5076898;28;20669;-78
2021/05/29 02:58:25;;;;;;;5.38;2.80;;;;;16.20;102356.00;;;;5068298;28;20230;-78
2021/05/29 03:00:52;;;;;;;4.13;2.95;;;;;16.20;102355.00;;;;5068872;28;20198;-78
2021/05/29 03:03:19;;;;;;;3.50;2.95;;;;;16.10;102358.00;;;;5068774;28;20260;-78
2021/05/29 03:05:48;;;;;;;3.80;2.85;;;;;16.10;102356.00;;;;5068193;28;20223;-78
2021/05/29 03:08:16;;;;;;;4.25;2.53;;;;;16.10;102357.00;;;;5068698;28;20199;-77
2021/05/29 03:10:45;;;;;;;3.40;2.40;;;;;16.10;102361.00;;;;5069343;28;20226;-78
2021/05/29 03:13:12;;;;;;;2.80;2.20;;;;;16.10;102363.00;;;;5087604;28;20215;-78
2021/05/29 03:15:39;;;;;;;2.85;2.25;;;;;16.10;102360.00;;;;5082191;28;20210;-78
2021/05/29 03:18:06;;;;;;;2.60;2.30;;;;;16.10;102362.00;;;;5068832;28;20210;-78
2021/05/29 03:20:35;;;;;;;3.55;2.33;;;;;16.10;102364.00;;;;5068335;28;20207;-78
2021/05/29 03:23:03;;;;;;;4.20;3.15;;;;;16.10;102360.00;;;;5068936;28;20683;-78
2021/05/29 03:25:29;;;;;;;3.22;2.38;;;;;16.10;102356.00;;;;5076946;28;20215;-77
2021/05/29 03:27:56;;;;;;;3.55;2.38;;;;;16.00;102357.00;;;;5068188;28;20199;-77
2021/05/29 03:30:25;;;;;;;3.55;2.33;;;;;16.00;102359.00;;;;5068064;28;20190;-77
2021/05/29 03:32:53;;;;;;;3.33;2.35;;;;;16.00;102368.00;;;;5068584;28;20269;-78
2021/05/29 03:35:20;;;;;;;2.22;2.00;;;;;16.00;102360.00;;;;5068403;28;20225;-77
2021/05/29 03:37:47;;;;;;;3.63;2.50;;;;;16.00;102361.00;;;;5068372;28;20210;-77
2021/05/29 03:40:16;;;;;;;3.60;2.78;;;;;16.00;102358.00;;;;5068239;28;20249;-77
2021/05/29 03:42:43;;;;;;;4.43;2.20;;;;;16.00;102360.00;;;;5079078;28;20203;-77
2021/05/29 03:45:14;;;;;;;3.88;2.35;;;;;16.00;102360.00;;;;5068243;28;20194;-77
2021/05/29 03:47:41;;;;;;;3.53;2.47;;;;;16.00;102365.00;;;;5087013;28;20209;-77
2021/05/29 03:50:10;;;;;;;4.57;2.70;;;;;16.00;102365.00;;;;5088461;28;20695;-78
2021/05/29 03:52:37;;;;;;;2.67;2.30;;;;;16.00;102364.00;;;;5081686;28;20215;-79
2021/05/29 03:55:04;;;;;;;2.83;2.13;;;;;16.00;102369.00;;;;5080637;28;20195;-78
2021/05/29 03:57:32;;;;;;;3.45;2.90;;;;;16.00;102373.00;;;;5084300;28;20672;-78
2021/05/29 03:59:59;;;;;;;2.58;2.38;;;;;16.10;102375.00;;;;5087833;28;20206;-78
2021/05/29 04:02:26;;;;;;;3.60;2.67;;;;;16.10;102369.00;;;;5087488;28;20233;-78
2021/05/29 04:04:52;;;;;;;2.45;2.03;;;;;16.10;102371.00;;;;5080763;28;20669;-77
2021/05/29 04:07:19;;;;;;;4.05;2.30;;;;;16.10;102374.00;;;;5067907;28;20222;-78
2021/05/29 04:09:46;;;;;;;2.95;2.53;;;;;16.10;102373.00;;;;5067477;28;20219;-78
2021/05/29 04:12:12;;;;;;;7.20;2.20;;;;;16.10;102376.00;;;;5067782;28;20226;-78
2021/05/29 04:14:40;;;;;;;2.95;2.60;;;;;16.10;102382.00;;;;5068516;28;20222;-78
2021/05/29 04:17:09;;;;;;;3.78;2.47;;;;;16.10;102381.00;;;;5079325;28;20831;-78
2021/05/29 04:19:35;;;;;;;2.35;2.13;;;;;16.20;102376.00;;;;5078581;28;20217;-78
2021/05/29 04:22:03;;;;;;;2.38;2.05;;;;;16.20;102381.00;;;;5071910;28;20210;-78
2021/05/29 04:24:30;;;;;;;3.38;2.55;;;;;16.20;102381.00;;;;5070726;28;20206;-78
2021/05/29 04:26:56;;;;;;;2.78;2.17;;;;;16.20;102382.00;;;;5071810;28;20229;-78
2021/05/29 04:29:23;;;;;;;2.88;2.50;;;;;16.30;102387.00;;;;5071448;28;20187;-78
2021/05/29 04:31:51;;;;;;;3.70;2.42;;;;;16.30;102395.00;;;;5071690;28;20240;-78
2021/05/29 04:34:17;;;;;;;3.92;2.35;;;;;16.30;102389.00;;;;5071634;28;20187;-78
2021/05/29 04:36:44;;;;;;;3.55;2.13;;;;;16.40;102391.00;;;;5077815;28;20198;-78
2021/05/29 04:39:11;;;;;;;3.42;2.17;;;;;16.40;102400.00;;;;5090997;28;20251;-78
2021/05/29 04:41:38;;;;;;;4.47;2.38;;;;;16.40;102399.00;;;;5085701;28;20202;-78
2021/05/29 04:44:05;;;;;;;2.90;2.45;;;;;16.50;102404.00;;;;5077615;28;20671;-78
2021/05/29 04:46:38;;;;;;;4.90;2.70;;;;;16.50;102403.00;;;;5089789;28;20723;-77
2021/05/29 04:49:06;;;;;;;3.83;2.35;;;;;16.50;102405.00;;;;5087056;28;20690;-78
2021/05/29 04:51:32;;;;;;;5.07;2.80;;;;;16.60;102408.00;;;;5078886;28;21067;-78
2021/05/29 04:53:59;;;;;;;3.95;2.70;;;;;16.60;102408.00;;;;5077054;28;20191;-78
2021/05/29 04:56:26;;;;;;;3.40;2.55;;;;;16.70;102412.00;;;;5070291;28;20195;-77
2021/05/29 04:58:53;;;;;;;3.85;2.83;;;;;16.70;102415.00;;;;5081689;28;20226;-78
2021/05/29 05:01:19;;;;;;;4.63;3.45;;;;;16.80;102417.00;;;;5074289;28;20195;-78
2021/05/29 05:03:46;;;;;;;4.20;2.63;;;;;16.80;102422.00;;;;5071195;28;20199;-78
2021/05/29 05:06:14;;;;;;;4.82;2.97;;;;;16.80;102432.00;;;;5080726;28;20264;-78
2021/05/29 05:08:41;;;;;;;5.25;3.03;;;;;16.90;102426.00;;;;5076760;28;20244;-77
2021/05/29 05:11:07;;;;;;;5.20;2.83;;;;;16.90;102426.00;;;;5091082;28;20190;-78
2021/05/29 05:13:34;;;;;;;3.38;2.90;;;;;17.00;102427.00;;;;5077156;28;20260;-78
2021/05/29 05:16:01;;;;;;;3.00;2.30;;;;;17.00;102433.00;;;;5080196;28;20202;-78
2021/05/29 05:18:27;;;;;;;3.20;2.67;;;;;17.00;102435.00;;;;5075001;28;21029;-77
2021/05/29 05:20:55;;;;;;;3.95;3.28;;;;;17.00;102439.00;;;;5070840;28;20195;-78
2021/05/29 05:23:23;;;;;;;5.88;2.90;;;;;17.10;102437.00;;;;5077458;28;20667;-77
2021/05/29 05:25:51;;;;;;;4.47;3.05;;;;;17.10;102431.00;;;;5075825;28;20222;-78
2021/05/29 05:28:17;;;;;;;3.85;2.97;;;;;17.20;102434.00;;;;5082469;28;20209;-78
2021/05/29 05:30:44;;;;;;;2.90;2.55;;;;;17.20;102440.00;;;;5074736;28;20199;-78
2021/05/29 05:33:11;;;;;;;4.80;3.10;;;;;17.20;102445.00;;;;5081862;28;20578;-78
2021/05/29 05:35:38;;;;;;;4.80;3.20;;;;;17.20;102449.00;;;;5082607;28;20543;-78
2021/05/29 05:38:05;;;;;;;3.10;2.42;;;;;17.30;102445.00;;;;5087944;28;20203;-78
2021/05/29 05:40:32;;;;;;;3.22;2.58;;;;;17.30;102444.00;;;;5079630;28;20202;-78
2021/05/29 05:42:59;;;;;;;6.22;3.28;;;;;17.30;102445.00;;;;5082453;28;20198;-78
2021/05/29 05:45:26;;;;;;;3.13;2.40;;;;;17.40;102454.00;;;;5080080;28;20198;-78
2021/05/29 05:47:53;;;;;;;4.40;2.88;;;;;17.40;102458.00;;;;5077617;28;20247;-78
2021/05/29 05:50:19;;;;;;;4.60;3.15;;;;;17.50;102455.00;;;;5089329;28;20225;-78
2021/05/29 05:52:47;;;;;;;4.72;2.80;;;;;17.50;102464.00;;;;5088715;28;20207;-78
2021/05/29 05:55:14;;;;;;;3.70;3.03;;;;;17.50;102457.00;;;;5089960;28;20235;-77
2021/05/29 05:57:42;;;;;;;3.65;2.55;;;;;17.60;102458.00;;;;5089400;28;20202;-78
2021/05/29 06:00:11;;;;;;;3.72;2.78;;;;;17.70;102455.00;;;;5075151;28;20203;-78
2021/05/29 06:02:38;;;;;;;5.32;3.22;;;;;17.70;102464.00;;;;5082686;28;20199;-78
2021/05/29 06:05:06;;;;;;;3.38;2.85;;;;;17.80;102472.00;;;;5068608;28;20637;-78
2021/05/29 06:07:32;;;;;;;3.67;2.65;;;;;17.80;102465.00;;;;5083865;28;20221;-78
2021/05/29 06:09:59;;;;;;;5.20;3.85;;;;;17.90;102470.00;;;;5090033;28;20225;-77
2021/05/29 06:12:26;;;;;;;4.10;3.47;;;;;18.00;102476.00;;;;5083455;28;20202;-77
2021/05/29 06:18:03;;;;;;;3.10;2.75;;;;;18.10;102479.00;;;;5071264;28;20380;-77
2021/05/29 06:20:31;;;;;;;4.93;3.33;;;;;18.20;102484.00;;;;5075369;28;20223;-78
2021/05/29 06:22:57;;;;;;;4.82;3.50;;;;;18.20;102480.00;;;;5079972;28;20277;-78
2021/05/29 06:25:24;;;;;;;5.78;3.58;;;;;18.30;102488.00;;;;5071901;28;20187;-77
2021/05/29 06:27:51;;;;;;;5.05;3.42;;;;;18.30;102494.00;;;;5072808;28;20224;-77
2021/05/29 06:30:19;;;;;;;5.75;3.80;;;;;18.40;102498.00;;;;5079007;28;20198;-78
2021/05/29 06:32:47;;;;;;;6.90;3.90;;;;;18.50;102492.00;;;;5074441;28;20221;-78
2021/05/29 06:35:14;;;;;;;7.18;4.20;;;;;18.50;102500.00;;;;5076469;28;20289;-78
2021/05/29 06:37:41;;;;;;;5.28;3.55;;;;;18.60;102496.00;;;;5073575;28;20209;-78
2021/05/29 06:40:09;;;;;;;4.93;3.83;;;;;18.70;102503.00;;;;5075707;28;20550;-78
2021/05/29 06:42:36;;;;;;;4.57;3.80;;;;;18.70;102502.00;;;;5076569;28;20567;-78
2021/05/29 06:45:04;;;;;;;5.55;4.30;;;;;18.80;102501.00;;;;5076695;28;20572;-78
2021/05/29 06:47:32;;;;;;;5.05;3.50;;;;;18.90;102506.00;;;;5078571;28;20237;-78
2021/05/29 06:49:59;;;;;;;4.25;3.83;;;;;19.00;102505.00;;;;5080126;28;20239;-77
2021/05/29 06:52:28;;;;;;;5.15;4.10;;;;;19.10;102512.00;;;;5088027;28;20197;-78
2021/05/29 06:55:02;;;;;;;5.57;4.10;;;;;19.10;102519.00;;;;5089565;28;20205;-78
2021/05/29 07:00:15;;;;;;;7.38;4.00;;;;;19.20;102523.00;;;;5079354;28;20248;-78
2021/05/29 07:02:42;;;;;;;4.65;3.85;;;;;19.30;102519.00;;;;5085654;28;20199;-79
2021/05/29 07:05:11;;;;;;;6.07;4.68;;;;;19.40;102519.00;;;;5071600;28;20198;-78
2021/05/29 07:07:39;;;;;;;6.30;4.55;;;;;19.40;102520.00;;;;5078051;28;20245;-78
2021/05/29 07:10:07;;;;;;;5.03;4.07;;;;;19.50;102518.00;;;;5083165;28;20225;-77
2021/05/29 07:12:34;;;;;;;6.13;4.50;;;;;19.60;102513.00;;;;5080320;28;20199;-78
2021/05/29 07:15:01;;;;;;;5.65;4.47;;;;;19.60;102510.00;;;;5075080;28;20190;-77
2021/05/29 07:17:31;;;;;;;6.55;4.50;;;;;19.70;102515.00;;;;5085911;28;20209;-77
2021/05/29 07:19:59;;;;;;;7.40;4.78;;;;;19.80;102522.00;;;;5073640;28;20509;-76
2021/05/29 07:22:26;;;;;;;6.28;4.38;;;;;19.90;102522.00;;;;5086886;28;20190;-76
2021/05/29 07:24:53;;;;;;;5.57;4.43;;;;;20.00;102524.00;;;;5087742;28;20271;-75
2021/05/29 07:27:19;;;;;;;5.65;3.90;;;;;20.10;102529.00;;;;5087614;28;20640;-75
2021/05/29 07:29:46;;;;;;;5.40;4.80;;;;;20.20;102524.00;;;;5086936;28;20890;-75
2021/05/29 07:32:13;;;;;;;5.95;4.32;;;;;20.30;102527.00;;;;5079321;28;20215;-77
2021/05/29 07:34:40;;;;;;;7.18;4.72;;;;;20.40;102533.00;;;;5078689;28;20194;-75
2021/05/29 07:37:08;;;;;;;6.70;4.72;;;;;20.50;102531.00;;;;5085976;28;20206;-75
2021/05/29 07:39:35;;;;;;;5.93;4.38;;;;;20.60;102529.00;;;;5075144;28;20198;-75
2021/05/29 07:42:02;;;;;;;5.07;4.43;;;;;20.70;102528.00;;;;5067407;28;20202;-75
2021/05/29 07:44:29;;;;;;;6.07;4.57;;;;;20.80;102526.00;;;;5066828;28;20743;-74
2021/05/29 07:46:56;;;;;;;6.43;4.75;;;;;20.90;102530.00;;;;5067736;28;20219;-74
2021/05/29 07:49:22;;;;;;;6.80;4.88;;;;;21.00;102531.00;;;;5067949;28;20210;-75
2021/05/29 07:51:49;;;;;;;6.70;5.00;;;;;21.10;102531.00;;;;5066827;28;20199;-75
2021/05/29 07:54:17;;;;;;;7.03;5.32;;;;;21.20;102533.00;;;;5084320;28;20210;-75
2021/05/29 07:56:43;;;;;;;5.43;4.53;;;;;21.30;102532.00;;;;5091629;28;20244;-74
2021/05/29 07:59:12;;;;;;;5.80;4.60;;;;;21.40;102530.00;;;;5092779;28;20194;-76
2021/05/29 08:01:39;;;;;;;6.47;4.63;;;;;21.50;102534.00;;;;5092415;28;20303;-75
2021/05/29 08:04:06;;;;;;;6.30;4.82;;;;;21.60;102534.00;;;;5081463;28;20199;-76
2021/05/29 08:06:35;;;;;;;5.47;4.50;;;;;21.70;102535.00;;;;5071636;28;20232;-75
2021/05/29 08:09:02;;;;;;;5.68;4.65;;;;;21.80;102537.00;;;;5072454;28;20224;-76
2021/05/29 08:11:29;;;;;;;4.90;4.22;;;;;21.90;102546.00;;;;5071547;28;20214;-75
2021/05/29 08:13:57;;;;;;;5.57;4.75;;;;;22.00;102539.00;;;;5087931;28;20202;-75
2021/05/29 08:16:24;;;;;;;7.32;4.95;;;;;22.10;102545.00;;;;5091502;28;20244;-81
2021/05/29 08:18:52;;;;;;;5.45;4.60;;;;;22.30;102543.00;;;;5087172;28;20195;-80
2021/05/29 08:21:21;;;;;;;5.22;4.50;;;;;22.40;102533.00;;;;5092142;28;20202;-79
2021/05/29 08:23:48;;;;;;;5.15;3.85;;;;;22.50;102551.00;;;;5092064;28;20241;-80
2021/05/29 08:26:15;;;;;;;5.95;4.75;;;;;22.70;102545.00;;;;5091394;28;20225;-80
2021/05/29 08:28:44;;;;;;;5.07;4.38;;;;;22.80;102547.00;;;;5090337;28;20194;-79
2021/05/29 08:31:11;;;;;;;6.30;3.85;;;;;22.90;102549.00;;;;5091051;28;20232;-80
2021/05/29 08:33:39;;;;;;;8.85;5.00;;;;;23.10;102549.00;;;;5091837;28;20263;-80
2021/05/29 08:36:06;;;;;;;4.45;3.92;;;;;23.20;102554.00;;;;5092576;28;20198;-79
2021/05/29 08:38:33;;;;;;;6.72;4.47;;;;;23.30;102557.00;;;;5090672;28;20802;-79
2021/05/29 08:41:00;;;;;;;5.38;4.88;;;;;23.40;102557.00;;;;5088594;28;20213;-79
2021/05/29 08:43:27;;;;;;;5.75;4.28;;;;;23.50;102553.00;;;;5086491;28;20213;-79
2021/05/29 08:45:55;;;;;;;4.35;3.65;;;;;23.60;102554.00;;;;5092137;28;20202;-77
2021/05/29 08:48:21;;;;;;;5.07;3.85;;;;;23.60;102556.00;;;;5077414;28;20716;-77
2021/05/29 08:53:34;;;;;;;4.03;3.60;;;;;23.70;102558.00;;;;5071193;28;20206;-76
2021/05/29 08:56:01;;;;;;;4.78;4.00;;;;;23.80;102552.00;;;;5071458;28;20256;-76
2021/05/29 08:58:30;;;;;;;5.30;4.40;;;;;23.90;102556.00;;;;5078313;28;20996;-77
2021/05/29 09:00:58;;;;;;;5.22;4.38;;;;;24.00;102554.00;;;;5078490;28;20196;-77
2021/05/29 09:03:37;;;;;;;6.00;3.67;;;;;24.20;102554.00;;;;5070571;28;20195;-77
2021/05/29 09:06:06;;;;;;;4.95;3.60;;;;;24.30;102560.00;;;;5089511;28;20222;-77
2021/05/29 09:08:33;;;;;;;4.88;4.20;;;;;24.40;102565.00;;;;5090807;28;20209;-77
2021/05/29 09:11:00;;;;;;;4.40;3.75;;;;;24.50;102560.00;;;;5091331;28;20198;-77
2021/05/29 09:13:28;;;;;;;8.63;4.35;;;;;24.60;102561.00;;;;5080056;28;21014;-76
2021/05/29 09:15:58;;;;;;;4.28;3.65;;;;;24.70;102560.00;;;;5074755;28;20214;-76
2021/05/29 09:18:34;;;;;;;5.05;3.80;;;;;24.70;102564.00;;;;5073546;28;20190;-76
2021/05/29 09:21:31;;;;;;;5.07;3.75;;;;;24.80;102563.00;;;;5086158;28;20555;-77
2021/05/29 09:24:00;;;;;;;5.50;3.42;;;;;25.10;102570.00;;;;5078292;28;20203;-78
2021/05/29 09:26:48;;;;;;;5.47;3.88;;;;;25.10;102564.00;;;;5069563;28;20218;-76
2021/05/29 09:29:18;;;;;;;3.78;3.35;;;;;25.40;102571.00;;;;5071702;28;20195;-76
2021/05/29 09:31:54;;;;;;;5.07;4.50;;;;;25.40;102572.00;;;;5070329;28;20244;-76
2021/05/29 09:34:33;;;;;;;5.03;4.25;;;;;25.50;102575.00;;;;5070098;28;20676;-76
2021/05/29 09:37:05;;;;;;;5.93;4.25;;;;;25.60;102573.00;;;;5070072;28;20205;-75
2021/05/29 09:39:32;;;;;;;4.43;3.70;;;;;25.80;102574.00;;;;5069759;28;20214;-77
2021/05/29 09:42:00;;;;;;;4.88;3.60;;;;;25.90;102578.00;;;;5071746;28;20190;-77
2021/05/29 09:44:30;;;;;;;4.90;4.35;;;;;25.90;102578.00;;;;5069600;28;20256;-77
2021/05/29 09:47:00;;;;;;;4.38;3.58;;;;;26.00;102579.00;;;;5069643;28;20215;-77
2021/05/29 09:49:44;;;;;;;4.10;3.63;;;;;25.80;102582.00;;;;5069153;28;20557;-77
2021/05/29 09:52:32;;;;;;;4.40;3.00;;;;;25.80;102584.00;;;;5069425;28;20577;-77
2021/05/29 09:55:01;;;;;;;6.50;3.83;;;;;25.80;102589.00;;;;5071256;28;20199;-76
2021/05/29 09:57:28;;;;;;;4.18;3.28;;;;;25.70;102584.00;;;;5089206;28;20575;-77
2021/05/29 09:59:56;;;;;;;5.90;3.53;;;;;25.50;102582.00;;;;5090197;28;20198;-76
2021/05/29 10:02:24;;;;;;;4.40;3.97;;;;;25.40;102586.00;;;;5080598;28;20244;-77
2021/05/29 10:04:54;;;;;;;5.75;3.97;;;;;25.20;102587.00;;;;5090095;28;20201;-77
2021/05/29 10:07:22;;;;;;;5.25;3.55;;;;;25.10;102585.00;;;;5085263;28;20250;-76
2021/05/29 10:09:49;;;;;;;3.72;3.33;;;;;25.00;102588.00;;;;5084572;28;20229;-76
2021/05/29 10:12:17;;;;;;;3.67;3.25;;;;;24.90;102595.00;;;;5084202;28;20228;-76
2021/05/29 10:14:44;;;;;;;4.47;4.07;;;;;24.90;102586.00;;;;5070681;28;20573;-77
2021/05/29 10:17:13;;;;;;;4.13;3.72;;;;;24.90;102588.00;;;;5070658;28;20248;-77
2021/05/29 10:19:43;;;;;;;4.30;3.17;;;;;24.90;102593.00;;;;5090462;28;20194;-76
2021/05/29 10:22:11;;;;;;;4.82;4.07;;;;;24.90;102590.00;;;;5074056;28;20207;-77
2021/05/29 10:24:40;;;;;;;3.92;3.53;;;;;24.90;102595.00;;;;5069393;28;20206;-77
2021/05/29 10:27:12;;;;;;;5.13;3.78;;;;;24.90;102591.00;;;;5068856;28;20712;-76
2021/05/29 10:29:39;;;;;;;4.30;3.50;;;;;24.90;102596.00;;;;5076469;28;20194;-76
2021/05/29 10:32:15;;;;;;;3.90;3.50;;;;;24.80;102588.00;;;;5076317;28;20199;-76
2021/05/29 10:34:53;;;;;;;5.95;3.10;;;;;24.80;102587.00;;;;5069448;28;20247;-75
2021/05/29 10:37:28;;;;;;;3.90;3.35;;;;;24.90;102592.00;;;;5069056;28;20199;-75
2021/05/29 10:40:11;;;;;;;5.88;3.97;;;;;25.00;102591.00;;;;5085934;28;20224;-78
2021/05/29 10:42:37;;;;;;;4.10;3.33;;;;;25.00;102582.00;;;;5078649;28;20206;-77
2021/05/29 10:45:16;;;;;;;4.32;3.72;;;;;24.90;102588.00;;;;5069153;28;20718;-76
2021/05/29 10:48:02;;;;;;;4.18;3.10;;;;;24.80;102585.00;;;;5071892;28;20222;-75
2021/05/29 10:50:57;;;;;;;2.85;2.60;;;;;24.70;102586.00;;;;5069000;28;20202;-76
2021/05/29 10:53:38;;;;;;;5.40;3.72;;;;;24.80;102580.00;;;;5071198;28;20656;-76
2021/05/29 10:56:31;;;;;;;4.05;3.20;;;;;24.80;102590.00;;;;5079959;28;20198;-76
2021/05/29 10:59:00;;;;;;;6.28;3.42;;;;;25.00;102583.00;;;;5068943;28;20211;-75
2021/05/29 11:02:15;;;;;;;4.15;3.47;;;;;24.90;102582.00;;;;5068625;28;20209;-75
2021/05/29 11:04:42;;;;;;;5.13;3.50;;;;;25.00;102581.00;;;;5069467;28;20206;-76
2021/05/29 11:07:27;;;;;;;3.50;3.17;;;;;24.80;102586.00;;;;5068433;28;20559;-76
2021/05/29 11:09:57;;;;;;;3.67;3.10;;;;;25.00;102587.00;;;;5081707;28;20864;-76
2021/05/29 11:12:52;;;;;;;5.28;3.55;;;;;24.90;102578.00;;;;5068900;28;20195;-76
2021/05/29 11:15:21;;;;;;;3.60;3.22;;;;;24.90;102583.00;;;;5068780;28;20195;-75
2021/05/29 11:18:07;;;;;;;5.93;3.45;;;;;24.80;102581.00;;;;5069293;28;20361;-75
2021/05/29 11:21:07;;;;;;;4.80;3.20;;;;;24.90;102581.00;;;;5069032;28;20310;-77
2021/05/29 11:23:36;;;;;;;3.17;2.88;;;;;25.00;102581.00;;;;5073938;28;20290;-78
2021/05/29 11:26:03;;;;;;;3.03;2.72;;;;;25.00;102587.00;;;;5071947;28;20198;-77
2021/05/29 11:28:30;;;;;;;4.22;3.55;;;;;25.00;102579.00;;;;5067481;28;20248;-75
2021/05/29 11:30:59;;;;;;;4.38;3.30;;;;;25.00;102585.00;;;;5068647;28;20210;-77
2021/05/29 11:33:26;;;;;;;4.65;2.78;;;;;25.00;102581.00;;;;5067573;28;20538;-77
2021/05/29 11:35:53;;;;;;;3.42;3.13;;;;;25.10;102579.00;;;;5068598;28;20206;-76
2021/05/29 11:38:24;;;;;;;3.05;2.75;;;;;25.20;102580.00;;;;5074669;28;20203;-76
2021/05/29 11:40:59;;;;;;;2.80;2.60;;;;;25.20;102590.00;;;;5089046;28;20186;-75
2021/05/29 11:43:40;;;;;;;3.33;3.00;;;;;25.10;102580.00;;;;5080474;28;20207;-76
2021/05/29 11:46:09;;;;;;;2.95;2.63;;;;;25.20;102576.00;;;;5069175;28;20190;-75
2021/05/29 11:48:38;;;;;;;2.95;2.38;;;;;25.30;102583.00;;;;5067259;28;20256;-76
2021/05/29 11:51:13;;;;;;;3.42;2.55;;;;;25.30;102588.00;;;;5068905;28;20191;-75
2021/05/29 11:53:43;;;;;;;3.20;2.90;;;;;25.40;102571.00;;;;5075669;28;20201;-79
2021/05/29 11:56:12;;;;;;;3.55;3.10;;;;;25.50;102585.00;;;;5067549;28;20716;-78
2021/05/29 11:58:55;;;;;;;3.92;2.90;;;;;25.40;102587.00;;;;5067653;28;20199;-78
2021/05/29 12:01:24;;;;;;;5.05;2.53;;;;;25.40;102591.00;;;;5085479;28;20198;-79
2021/05/29 12:03:52;;;;;;;4.03;2.63;;;;;25.40;102583.00;;;;5082524;28;20198;-78
2021/05/29 12:06:37;;;;;;;3.72;2.70;;;;;25.30;102583.00;;;;5091423;28;20650;-79
2021/05/29 12:09:07;;;;;;;3.42;2.42;;;;;25.40;102585.00;;;;5090140;28;20287;-79
2021/05/29 12:11:36;;;;;;;3.75;2.80;;;;;25.40;102585.00;;;;5085405;28;20199;-79
2021/05/29 12:14:08;;;;;;;2.35;2.13;;;;;25.50;102581.00;;;;5087564;28;20190;-76
2021/05/29 12:16:36;;;;;;;3.22;2.55;;;;;25.50;102573.00;;;;5092437;28;20560;-78
2021/05/29 12:19:04;;;;;;;2.20;1.95;;;;;25.50;102575.00;;;;5087179;28;20709;-78
2021/05/29 12:21:50;;;;;;;2.88;2.40;;;;;25.40;102577.00;;;;5081210;28;20199;-78
2021/05/29 12:24:19;;;;;;;5.32;2.60;;;;;25.50;102582.00;;;;5070295;28;20760;-79
2021/05/29 12:26:48;;;;;;;4.30;2.60;;;;;25.50;102586.00;;;;5067766;28;20313;-79